createdAt,value
2019-04-29T00:00:45.065Z,82.37
2019-04-29T00:03:12.557Z,82.54
2019-04-29T00:05:39.699Z,82.40
2019-04-29T00:08:06.930Z,82.43
2019-04-29T00:10:34.130Z,82.66
2019-04-29T00:13:01.295Z,82.51
2019-04-29T00:15:46.716Z,82.51
2019-04-29T00:18:22.481Z,82.42
2019-04-29T00:20:50.308Z,83.22
2019-04-29T00:23:17.475Z,83.24
2019-04-29T00:25:44.604Z,82.77
2019-04-29T00:28:12.155Z,82.69
2019-04-29T00:30:39.325Z,82.62
2019-04-29T00:33:06.433Z,83.02
2019-04-29T00:35:33.633Z,82.76
2019-04-29T00:38:19.109Z,82.90
2019-04-29T00:41:04.785Z,83.15
2019-04-29T00:43:45.547Z,83.01
2019-04-29T00:46:12.639Z,82.67
2019-04-29T00:48:39.774Z,82.40
2019-04-29T00:51:06.908Z,82.53
2019-04-29T00:53:34.130Z,82.63
2019-04-29T00:56:01.978Z,82.90
2019-04-29T00:58:29.185Z,83.06
2019-04-29T01:00:56.409Z,82.94
2019-04-29T01:03:23.466Z,83.14
2019-04-29T01:05:50.589Z,83.01
2019-04-29T01:08:17.807Z,83.13
2019-04-29T01:10:44.892Z,83.12
2019-04-29T01:13:12.025Z,83.46
2019-04-29T01:15:39.069Z,83.25
2019-04-29T01:18:06.134Z,82.92
2019-04-29T01:20:33.257Z,82.85
2019-04-29T01:23:00.362Z,82.83
2019-04-29T01:25:27.435Z,82.83
2019-04-29T01:28:10.974Z,82.78
2019-04-29T01:30:56.194Z,82.66
2019-04-29T01:33:23.468Z,82.61
2019-04-29T01:35:54.277Z,82.70
2019-04-29T01:38:21.333Z,82.50
2019-04-29T01:40:58.984Z,82.56
2019-04-29T01:43:45.647Z,82.50
2019-04-29T01:46:12.800Z,82.49
2019-04-29T01:48:39.795Z,82.47
2019-04-29T01:51:06.803Z,82.56
2019-04-29T01:53:33.923Z,82.82
2019-04-29T01:56:00.949Z,82.69
2019-04-29T01:58:28.008Z,82.62
2019-04-29T02:00:55.075Z,82.68
2019-04-29T02:03:22.149Z,82.97
2019-04-29T02:05:49.258Z,82.84
2019-04-29T02:08:16.553Z,82.64
2019-04-29T02:10:43.665Z,82.57
2019-04-29T02:13:10.778Z,82.77
2019-04-29T02:15:37.857Z,82.60
2019-04-29T02:18:04.911Z,82.49
2019-04-29T02:20:31.928Z,82.32
2019-04-29T02:23:18.534Z,82.51
2019-04-29T02:25:46.049Z,82.52
2019-04-29T02:28:13.102Z,82.36
2019-04-29T02:30:45.457Z,82.68
2019-04-29T02:33:12.535Z,82.66
2019-04-29T02:35:39.883Z,83.15
2019-04-29T02:38:09.414Z,82.76
2019-04-29T02:40:44.017Z,82.50
2019-04-29T02:43:16.426Z,82.34
2019-04-29T02:45:43.425Z,82.37
2019-04-29T02:48:10.479Z,82.35
2019-04-29T02:50:37.512Z,82.51
2019-04-29T02:53:04.533Z,83.09
2019-04-29T02:55:38.541Z,82.69
2019-04-29T02:58:12.668Z,82.92
2019-04-29T03:00:59.378Z,82.92
2019-04-29T03:03:38.056Z,83.19
2019-04-29T03:06:05.311Z,82.99
2019-04-29T03:09:30.333Z,82.91
2019-04-29T03:12:31.085Z,82.69
2019-04-29T03:18:53.825Z,82.45
2019-04-29T03:21:28.301Z,82.41
2019-04-29T03:23:55.369Z,82.57
2019-04-29T03:26:22.405Z,82.56
2019-04-29T03:28:49.488Z,82.88
2019-04-29T03:31:16.471Z,82.99
2019-04-29T03:33:43.533Z,82.88
2019-04-29T03:36:10.523Z,82.85
2019-04-29T03:38:37.541Z,82.92
2019-04-29T03:41:04.550Z,82.73
2019-04-29T03:43:31.588Z,82.73
2019-04-29T03:45:58.605Z,82.72
2019-04-29T03:48:25.645Z,82.87
2019-04-29T03:50:52.674Z,82.96
2019-04-29T03:53:19.683Z,82.96
2019-04-29T03:55:46.716Z,82.75
2019-04-29T03:58:13.720Z,82.64
2019-04-29T04:00:44.296Z,82.91
2019-04-29T04:03:26.845Z,82.95
2019-04-29T04:06:08.448Z,82.86
2019-04-29T04:08:38.104Z,82.82
2019-04-29T04:11:05.161Z,82.55
2019-04-29T04:13:32.154Z,82.47
2019-04-29T04:15:59.410Z,82.43
2019-04-29T04:18:33.253Z,82.23
2019-04-29T04:21:00.301Z,82.33
2019-04-29T04:23:27.295Z,82.16
2019-04-29T04:25:54.343Z,82.09
2019-04-29T04:28:21.357Z,81.92
2019-04-29T04:30:48.423Z,81.88
2019-04-29T04:33:15.434Z,82.14
2019-04-29T04:35:42.474Z,82.13
2019-04-29T04:38:09.506Z,81.86
2019-04-29T04:40:41.361Z,81.64
2019-04-29T04:43:08.379Z,81.42
2019-04-29T04:45:35.399Z,81.75
2019-04-29T04:48:02.559Z,81.53
2019-04-29T04:50:29.693Z,81.42
2019-04-29T04:52:56.755Z,81.23
2019-04-29T04:55:26.967Z,80.95
2019-04-29T04:57:53.991Z,81.30
2019-04-29T05:00:22.580Z,81.15
2019-04-29T05:02:49.657Z,81.11
2019-04-29T05:05:16.782Z,81.28
2019-04-29T05:07:43.910Z,80.96
2019-04-29T05:10:11.615Z,81.18
2019-04-29T05:12:38.631Z,80.82
2019-04-29T05:15:05.724Z,80.63
2019-04-29T05:17:32.855Z,80.37
2019-04-29T05:19:59.911Z,80.29
2019-04-29T05:22:26.940Z,80.03
2019-04-29T05:24:53.977Z,79.93
2019-04-29T05:27:21.015Z,79.90
2019-04-29T05:29:48.057Z,79.43
2019-04-29T05:32:15.155Z,79.31
2019-04-29T05:34:46.522Z,79.26
2019-04-29T05:37:19.886Z,79.45
2019-04-29T05:39:47.004Z,79.36
2019-04-29T05:42:17.043Z,79.14
2019-04-29T05:45:02.574Z,78.94
2019-04-29T05:47:35.753Z,78.35
2019-04-29T05:50:37.805Z,78.78
2019-04-29T05:53:27.220Z,78.77
2019-04-29T05:55:54.327Z,78.07
2019-04-29T05:58:21.388Z,78.37
2019-04-29T06:01:01.331Z,77.06
2019-04-29T06:03:28.509Z,77.31
2019-04-29T06:05:55.555Z,76.76
2019-04-29T06:08:22.718Z,76.91
2019-04-29T06:10:49.787Z,76.30
2019-04-29T06:13:16.799Z,75.47
2019-04-29T06:15:43.818Z,75.65
2019-04-29T06:18:10.923Z,75.12
2019-04-29T06:20:37.961Z,75.17
2019-04-29T06:23:04.997Z,75.38
2019-04-29T06:25:32.058Z,73.88
2019-04-29T06:27:59.132Z,73.98
2019-04-29T06:30:26.146Z,74.18
2019-04-29T06:32:53.218Z,74.05
2019-04-29T06:35:20.256Z,73.07
2019-04-29T06:37:47.282Z,73.01
2019-04-29T06:40:14.550Z,72.67
2019-04-29T06:42:41.586Z,72.18
2019-04-29T06:45:08.664Z,72.02
2019-04-29T06:47:35.680Z,72.03
2019-04-29T06:50:03.696Z,71.98
2019-04-29T08:02:32.798Z,60.26
2019-04-29T08:04:59.839Z,60.76
2019-04-29T08:07:27.370Z,61.60
2019-04-29T08:09:54.783Z,59.82
2019-04-29T08:12:23.275Z,59.10
2019-04-29T08:14:53.406Z,58.11
2019-04-29T08:17:20.845Z,57.12
2019-04-29T08:19:47.842Z,56.84
2019-04-29T08:22:18.086Z,56.98
2019-04-29T08:24:45.949Z,55.27
2019-04-29T08:27:12.843Z,55.12
2019-04-29T08:29:39.886Z,54.73
2019-04-29T08:32:06.961Z,53.23
2019-04-29T08:34:33.972Z,52.20
2019-04-29T08:37:01.006Z,50.32
2019-04-29T08:39:29.323Z,49.84
2019-04-29T08:42:02.929Z,50.66
2019-04-29T08:44:35.992Z,50.56
2019-04-29T08:47:22.939Z,51.53
2019-04-29T08:49:51.663Z,50.87
2019-04-29T08:52:18.718Z,51.21
2019-04-29T08:54:45.770Z,52.57
2019-04-29T08:57:12.818Z,50.93
2019-04-29T08:59:39.852Z,49.93
2019-04-29T09:02:10.340Z,50.52
2019-04-29T09:04:35.947Z,50.17
2019-04-29T09:07:12.502Z,49.91
2019-04-29T09:09:31.916Z,49.01
2019-04-29T09:11:58.975Z,49.16
2019-04-29T09:14:26.081Z,50.48
2019-04-29T09:16:53.202Z,49.48
2019-04-29T09:19:20.263Z,49.81
2019-04-29T09:21:50.371Z,49.24
2019-04-29T09:24:17.397Z,49.79
2019-04-29T09:26:49.685Z,49.39
2019-04-29T09:29:36.363Z,48.45
2019-04-29T09:32:04.822Z,49.47
2019-04-29T09:34:31.857Z,48.33
2019-04-29T09:36:58.885Z,45.97
2019-04-29T09:39:25.960Z,46.53
2019-04-29T09:42:14.808Z,46.32
2019-04-29T09:45:19.558Z,47.54
2019-04-29T09:47:45.574Z,47.07
2019-04-29T09:50:12.586Z,46.29
2019-04-29T09:52:39.643Z,46.94
2019-04-29T09:55:06.857Z,46.62
2019-04-29T09:57:33.933Z,45.57
2019-04-29T10:00:07.374Z,46.32
2019-04-29T10:02:43.621Z,47.35
2019-04-29T10:05:30.724Z,46.87
2019-04-29T10:07:57.750Z,45.31
2019-04-29T10:10:24.915Z,44.82
2019-04-29T10:12:53.858Z,45.40
2019-04-29T10:15:27.955Z,45.41
2019-04-29T10:18:00.492Z,45.82
2019-04-29T10:20:50.134Z,46.25
2019-04-29T10:23:17.250Z,45.59
2019-04-29T10:25:44.342Z,44.41
2019-04-29T10:28:11.278Z,44.58
2019-04-29T10:30:38.352Z,43.09
2019-04-29T10:33:05.366Z,43.47
2019-04-29T10:35:32.523Z,46.08
2019-04-29T10:38:11.652Z,44.52
2019-04-29T10:41:00.520Z,44.67
2019-04-29T10:43:44.357Z,45.90
2019-04-29T10:46:29.693Z,48.60
2019-04-29T10:49:03.759Z,50.14
2019-04-29T10:51:30.976Z,48.88
2019-04-29T10:53:58.828Z,47.84
2019-04-29T10:56:25.869Z,45.38
2019-04-29T10:58:53.016Z,40.31
2019-04-29T11:02:19.518Z,42.59
2019-04-29T11:04:48.176Z,47.07
2019-04-29T11:07:31.022Z,46.03
2019-04-29T11:10:01.511Z,45.71
2019-04-29T11:12:28.512Z,43.62
2019-04-29T11:14:55.628Z,43.84
2019-04-29T11:17:24.944Z,42.52
2019-04-29T11:19:51.992Z,44.16
2019-04-29T11:22:21.186Z,44.52
2019-04-29T11:25:01.805Z,43.51
2019-04-29T11:27:34.749Z,44.22
2019-04-29T11:30:02.885Z,39.98
2019-04-29T11:32:37.837Z,41.42
2019-04-29T11:35:15.519Z,41.76
2019-04-29T11:37:42.583Z,42.21
2019-04-29T11:40:09.734Z,42.83
2019-04-29T11:42:41.476Z,42.10
2019-04-29T11:45:08.432Z,40.58
2019-04-29T11:47:35.502Z,40.99
2019-04-29T11:50:26.916Z,41.68
2019-04-29T11:52:55.624Z,42.13
2019-04-29T11:55:22.835Z,43.58
2019-04-29T11:58:04.542Z,43.09
2019-04-29T12:00:56.838Z,43.24
2019-04-29T12:03:27.925Z,44.36
2019-04-29T12:06:02.769Z,44.18
2019-04-29T12:08:29.839Z,43.22
2019-04-29T12:11:06.700Z,41.63
2019-04-29T12:13:33.241Z,40.88
2019-04-29T12:16:08.289Z,42.36
2019-04-29T12:18:39.863Z,44.03
2019-04-29T12:21:28.092Z,44.67
2019-04-29T12:23:57.680Z,41.39
2019-04-29T12:26:24.926Z,40.79
2019-04-29T12:28:51.996Z,40.30
2019-04-29T12:31:37.470Z,39.87
2019-04-29T12:34:18.111Z,40.22
2019-04-29T12:36:55.844Z,40.10
2019-04-29T12:39:51.941Z,40.57
2019-04-29T12:42:55.178Z,40.39
2019-04-29T12:45:36.906Z,39.71
2019-04-29T12:48:06.442Z,39.18
2019-04-29T12:50:33.186Z,39.43
2019-04-29T12:53:00.286Z,42.83
2019-04-29T12:55:44.064Z,43.73
2019-04-29T12:58:04.340Z,42.90
2019-04-29T13:00:46.435Z,42.51
2019-04-29T13:03:16.975Z,41.60
2019-04-29T13:05:59.843Z,40.73
2019-04-29T13:08:37.805Z,39.92
2019-04-29T13:11:05.882Z,40.80
2019-04-29T13:13:32.948Z,41.97
2019-04-29T13:16:20.060Z,42.35
2019-04-29T13:19:11.537Z,42.81
2019-04-29T13:21:30.940Z,42.06
2019-04-29T13:24:12.878Z,43.00
2019-04-29T13:26:28.538Z,40.28
2019-04-29T13:29:01.147Z,40.05
2019-04-29T13:31:37.503Z,38.02
2019-04-29T13:33:55.718Z,38.23
2019-04-29T13:36:26.086Z,41.00
2019-04-29T13:38:51.662Z,40.46
2019-04-29T13:41:24.305Z,39.07
2019-04-29T13:43:48.601Z,38.04
2019-04-29T13:46:25.687Z,40.44
2019-04-29T13:49:13.833Z,40.65
2019-04-29T13:51:41.173Z,39.79
2019-04-29T13:54:08.199Z,40.29
2019-04-29T13:56:54.067Z,39.49
2019-04-29T13:59:10.573Z,38.84
2019-04-29T14:01:59.943Z,40.01
2019-04-29T14:04:26.019Z,40.57
2019-04-29T14:06:57.043Z,41.81
2019-04-29T14:09:22.233Z,41.83
2019-04-29T14:12:01.091Z,41.10
2019-04-29T14:14:22.766Z,40.52
2019-04-29T14:16:48.600Z,41.91
2019-04-29T14:19:20.604Z,40.05
2019-04-29T14:21:44.853Z,39.42
2019-04-29T14:24:11.925Z,38.97
2019-04-29T14:26:41.862Z,38.54
2019-04-29T14:29:07.961Z,39.01
2019-04-29T14:31:35.020Z,37.55
2019-04-29T14:34:24.350Z,38.79
2019-04-29T14:36:51.390Z,38.17
2019-04-29T14:39:35.920Z,38.51
2019-04-29T14:41:55.439Z,39.66
2019-04-29T14:44:41.074Z,39.95
2019-04-29T14:47:33.604Z,39.46
2019-04-29T14:50:10.705Z,39.02
2019-04-29T14:52:36.683Z,40.42
2019-04-29T14:55:04.444Z,40.49
2019-04-29T14:57:31.687Z,41.37
2019-04-29T14:59:59.003Z,39.67
2019-04-29T15:02:26.778Z,40.94
2019-04-29T15:04:53.949Z,39.45
2019-04-29T15:07:21.091Z,39.34
2019-04-29T15:09:55.879Z,39.05
2019-04-29T15:12:28.754Z,40.00
2019-04-29T15:15:03.619Z,39.20
2019-04-29T15:17:40.368Z,39.75
2019-04-29T15:20:25.076Z,39.13
2019-04-29T15:22:50.621Z,39.34
2019-04-29T15:25:20.999Z,40.67
2019-04-29T15:27:46.640Z,40.33
2019-04-29T15:30:16.181Z,40.10
2019-04-29T15:32:43.202Z,40.63
2019-04-29T15:35:10.238Z,40.33
2019-04-29T15:37:37.323Z,41.55
2019-04-29T15:40:05.069Z,42.54
2019-04-29T15:42:32.244Z,42.67
2019-04-29T15:46:21.272Z,43.64
2019-04-29T16:07:51.582Z,43.67
2019-04-29T16:12:29.595Z,44.85
2019-04-29T16:14:35.667Z,44.99
2019-04-29T16:17:20.593Z,45.87
2019-04-29T16:20:07.274Z,46.05
2019-04-29T16:23:45.878Z,45.99
2019-04-29T16:30:51.145Z,47.81
2019-04-29T16:32:57.403Z,48.74
2019-04-29T16:35:50.262Z,48.92
2019-04-29T16:38:17.888Z,47.89
2019-04-29T16:41:32.363Z,48.29
2019-04-29T16:44:04.021Z,48.08
2019-04-29T16:50:14.808Z,49.07
2019-04-29T16:52:45.959Z,49.56
2019-04-29T16:56:00.484Z,49.84
2019-04-29T16:59:09.407Z,49.29
2019-04-29T17:01:36.926Z,49.24
2019-04-29T17:04:05.288Z,50.42
2019-04-29T17:14:13.119Z,50.01
2019-04-29T17:17:29.024Z,50.68
2019-04-29T17:23:28.038Z,51.67
2019-04-29T17:25:55.056Z,51.58
2019-04-29T17:28:31.098Z,52.27
2019-04-29T17:31:12.539Z,53.48
2019-04-29T17:33:51.291Z,53.79
2019-04-29T17:36:23.619Z,54.25
2019-04-29T17:38:47.875Z,54.59
2019-04-29T17:41:14.945Z,55.02
2019-04-29T17:44:07.448Z,55.81
2019-04-29T17:46:54.127Z,55.54
2019-04-29T17:49:37.299Z,55.97
2019-04-29T17:52:09.631Z,56.44
2019-04-29T17:54:39.859Z,56.06
2019-04-29T17:57:31.786Z,55.99
2019-04-29T18:00:27.711Z,56.45
2019-04-29T18:03:12.951Z,56.13
2019-04-29T18:05:54.950Z,55.79
2019-04-29T18:08:40.091Z,56.46
2019-04-29T18:11:08.218Z,56.70
2019-04-29T18:13:35.473Z,56.94
2019-04-29T18:16:04.685Z,58.08
2019-04-29T18:19:01.709Z,58.83
2019-04-29T18:21:47.429Z,58.57
2019-04-29T18:24:46.359Z,59.15
2019-04-29T18:27:15.868Z,59.33
2019-04-29T18:29:43.140Z,59.49
2019-04-29T18:32:10.577Z,60.10
2019-04-29T18:34:37.697Z,60.40
2019-04-29T18:37:06.499Z,60.20
2019-04-29T18:39:33.982Z,59.69
2019-04-29T18:42:03.120Z,60.21
2019-04-29T18:44:30.055Z,60.72
2019-04-29T18:46:57.377Z,60.90
2019-04-29T18:49:25.815Z,61.81
2019-04-29T18:51:52.945Z,61.36
2019-04-29T18:54:20.154Z,62.47
2019-04-29T18:56:47.215Z,61.79
2019-04-29T18:59:15.977Z,61.92
2019-04-29T19:01:45.021Z,62.90
2019-04-29T19:04:22.309Z,63.83
2019-04-29T19:06:51.315Z,64.85
2019-04-29T19:09:20.944Z,65.06
2019-04-29T19:11:48.083Z,64.65
2019-04-29T19:14:15.218Z,64.60
2019-04-29T19:16:42.343Z,64.73
2019-04-29T19:19:09.340Z,64.27
2019-04-29T19:21:36.412Z,64.36
2019-04-29T19:24:04.849Z,64.78
2019-04-29T19:26:32.031Z,64.96
2019-04-29T19:29:01.302Z,65.31
2019-04-29T19:31:28.098Z,64.70
2019-04-29T19:33:57.230Z,65.60
2019-04-29T19:36:24.254Z,65.41
2019-04-29T19:38:51.399Z,66.13
2019-04-29T19:41:18.576Z,66.33
2019-04-29T19:43:48.268Z,66.27
2019-04-29T19:46:22.580Z,66.07
2019-04-29T19:48:45.113Z,66.53
2019-04-29T19:51:16.112Z,66.15
2019-04-29T19:53:43.473Z,65.91
2019-04-29T19:56:12.712Z,67.27
2019-04-29T19:58:40.031Z,66.58
2019-04-29T20:01:13.981Z,67.34
2019-04-29T20:03:50.134Z,66.63
2019-04-29T20:06:24.904Z,67.37
2019-04-29T20:08:53.813Z,67.31
2019-04-29T20:11:17.601Z,67.47
2019-04-29T20:13:58.437Z,67.21
2019-04-29T20:16:40.366Z,67.12
2019-04-29T20:19:16.459Z,66.94
2019-04-29T20:21:41.011Z,67.62
2019-04-29T20:24:09.806Z,67.87
2019-04-29T20:26:37.257Z,67.93
2019-04-29T20:29:07.114Z,67.36
2019-04-29T20:31:35.627Z,67.09
2019-04-29T20:34:02.656Z,67.71
2019-04-29T20:36:40.838Z,67.55
2019-04-29T20:38:58.930Z,68.23
2019-04-29T20:41:40.094Z,67.36
2019-04-29T20:43:56.265Z,65.96
2019-04-29T20:46:23.507Z,65.64
2019-04-29T20:48:57.464Z,65.67
2019-04-29T20:51:23.302Z,65.98
2019-04-29T20:53:58.150Z,66.34
2019-04-29T20:56:28.999Z,65.36
2019-04-29T20:58:55.160Z,65.92
2019-04-29T21:01:30.800Z,65.78
2019-04-29T21:03:58.084Z,65.42
2019-04-29T21:06:25.158Z,65.43
2019-04-29T21:08:52.322Z,65.81
2019-04-29T21:11:32.060Z,66.43
2019-04-29T21:14:21.602Z,67.01
2019-04-29T21:16:49.411Z,67.15
2019-04-29T21:19:16.548Z,67.28
2019-04-29T21:21:45.596Z,67.03
2019-04-29T21:24:18.289Z,67.17
2019-04-29T21:26:44.419Z,67.35
2019-04-29T21:29:15.147Z,67.38
2019-04-29T21:31:39.747Z,66.92
2019-04-29T21:34:06.797Z,66.90
2019-04-29T21:37:08.573Z,66.39
2019-04-29T21:39:55.061Z,66.53
2019-04-29T21:42:55.405Z,67.66
2019-04-29T21:45:22.698Z,67.44
2019-04-29T21:47:54.337Z,66.74
2019-04-29T21:50:21.678Z,67.30
2019-04-29T21:52:48.736Z,67.79
2019-04-29T21:55:16.320Z,67.62
2019-04-29T21:57:45.087Z,67.55
2019-04-29T22:00:12.955Z,67.44
2019-04-29T22:02:41.608Z,67.45
2019-04-29T22:05:09.541Z,68.60
2019-04-29T22:07:39.781Z,68.35
2019-04-29T22:10:20.053Z,68.50
2019-04-29T22:12:45.016Z,68.89
2019-04-29T22:15:15.823Z,69.62
2019-04-29T22:17:54.388Z,69.58
2019-04-29T22:20:12.923Z,69.48
2019-04-29T22:22:40.294Z,69.12
2019-04-29T22:25:10.003Z,69.26
2019-04-29T22:27:39.327Z,69.32
2019-04-29T22:30:10.226Z,70.30
2019-04-29T22:32:39.152Z,70.38
2019-04-29T22:35:06.689Z,70.20
2019-04-29T22:37:37.157Z,70.54
2019-04-29T22:40:09.071Z,70.90
2019-04-29T22:42:45.763Z,70.47
2019-04-29T22:45:13.527Z,71.42
2019-04-29T22:47:40.593Z,71.10
2019-04-29T22:50:07.620Z,71.64
2019-04-29T22:52:34.882Z,71.18
2019-04-29T22:55:05.533Z,70.78
2019-04-29T22:57:32.764Z,71.41
2019-04-29T22:59:59.814Z,71.10
2019-04-29T23:02:28.445Z,72.70
2019-04-29T23:04:55.836Z,72.31
2019-04-29T23:07:23.464Z,72.57
2019-04-29T23:09:50.601Z,72.55
2019-04-29T23:12:18.641Z,72.10
2019-04-29T23:14:45.962Z,72.90
2019-04-29T23:17:13.423Z,72.07
2019-04-29T23:19:41.548Z,72.07
2019-04-29T23:22:34.033Z,71.67
2019-04-29T23:25:08.500Z,71.43
2019-04-29T23:27:36.028Z,71.88
2019-04-29T23:30:04.513Z,72.96
2019-04-29T23:32:31.577Z,71.90
2019-04-29T23:35:01.661Z,71.91
2019-04-29T23:37:29.476Z,72.18
2019-04-29T23:39:56.701Z,72.25
2019-04-29T23:42:23.729Z,72.68
2019-04-29T23:44:50.788Z,73.36
2019-04-29T23:47:17.896Z,72.60
2019-04-29T23:49:46.746Z,73.43
2019-04-29T23:52:17.641Z,72.63
2019-04-29T23:54:46.935Z,73.76
2019-04-29T23:57:29.994Z,74.19
